createdAt,value
2022-12-08T00:01:35.485Z,100.00
2022-12-08T00:04:04.782Z,100.00
2022-12-08T00:06:51.550Z,100.00
2022-12-08T00:09:38.739Z,100.00
2022-12-08T00:12:13.566Z,100.00
2022-12-08T00:14:44.257Z,99.93
2022-12-08T00:17:14.649Z,99.83
2022-12-08T00:19:43.287Z,99.81
2022-12-08T00:22:14.906Z,100.00
2022-12-08T00:24:45.726Z,100.00
2022-12-08T00:27:15.967Z,99.87
2022-12-08T00:29:45.680Z,99.57
2022-12-08T00:32:14.230Z,99.50
2022-12-08T00:34:42.282Z,99.45
2022-12-08T00:37:10.413Z,98.52
2022-12-08T00:39:38.444Z,98.51
2022-12-08T00:42:12.387Z,98.22
2022-12-08T00:44:45.578Z,97.89
2022-12-08T00:47:14.472Z,97.53
2022-12-08T00:49:42.481Z,97.49
2022-12-08T00:52:10.416Z,97.31
2022-12-08T00:54:38.486Z,97.40
2022-12-08T00:57:06.969Z,97.54
2022-12-08T00:59:35.031Z,97.54
2022-12-08T01:02:03.243Z,97.61
2022-12-08T01:04:31.230Z,97.60
2022-12-08T01:06:59.168Z,97.67
2022-12-08T01:09:27.259Z,97.78
2022-12-08T01:11:55.644Z,97.92
2022-12-08T01:14:23.673Z,97.92
2022-12-08T01:16:51.935Z,98.00
2022-12-08T01:19:20.372Z,98.08
2022-12-08T01:21:48.500Z,98.14
2022-12-08T01:24:19.391Z,98.22
2022-12-08T01:26:48.730Z,98.41
2022-12-08T01:29:16.928Z,98.42
2022-12-08T01:31:44.972Z,98.43
2022-12-08T01:34:13.096Z,98.23
2022-12-08T01:36:42.503Z,98.23
2022-12-08T01:39:18.468Z,98.00
2022-12-08T01:41:48.090Z,98.02
2022-12-08T01:44:16.069Z,98.05
2022-12-08T01:46:48.446Z,98.11
2022-12-08T01:49:22.243Z,98.09
2022-12-08T01:52:14.197Z,98.04
2022-12-08T01:54:57.513Z,98.54
2022-12-08T01:57:34.655Z,98.52
2022-12-08T02:00:10.060Z,98.57
2022-12-08T02:02:53.706Z,98.53
2022-12-08T02:05:26.823Z,98.53
2022-12-08T02:07:57.291Z,98.68
2022-12-08T02:10:29.914Z,98.73
2022-12-08T02:12:59.521Z,98.62
2022-12-08T02:15:42.875Z,98.47
2022-12-08T02:18:26.090Z,98.63
2022-12-08T02:21:09.247Z,98.55
2022-12-08T02:23:51.353Z,98.68
2022-12-08T02:27:02.584Z,98.69
2022-12-08T02:29:33.641Z,98.76
2022-12-08T02:32:39.302Z,99.21
2022-12-08T02:35:10.339Z,99.63
2022-12-08T02:37:44.124Z,99.67
2022-12-08T02:40:32.875Z,99.98
2022-12-08T02:43:07.818Z,100.00
2022-12-08T02:45:45.766Z,100.00
2022-12-08T02:48:15.404Z,100.00
2022-12-08T02:50:43.513Z,100.00
2022-12-08T02:56:00.489Z,100.00
2022-12-08T02:58:52.752Z,100.00
2022-12-08T03:02:31.771Z,100.00
2022-12-08T03:05:10.406Z,100.00
2022-12-08T03:07:52.991Z,100.00
2022-12-08T03:10:36.217Z,100.00
2022-12-08T03:13:15.927Z,100.00
2022-12-08T03:15:49.532Z,100.00
2022-12-08T03:18:23.402Z,99.95
2022-12-08T03:20:52.162Z,100.00
2022-12-08T03:23:22.375Z,99.97
2022-12-08T03:26:13.475Z,99.80
2022-12-08T03:28:41.553Z,99.26
2022-12-08T03:31:14.628Z,99.37
2022-12-08T03:33:45.839Z,99.88
2022-12-08T03:36:14.878Z,99.82
2022-12-08T03:38:44.987Z,99.24
2022-12-08T03:41:19.466Z,99.05
2022-12-08T03:44:05.867Z,98.96
2022-12-08T03:46:33.886Z,99.04
2022-12-08T03:49:01.784Z,98.74
2022-12-08T03:51:29.955Z,98.66
2022-12-08T03:53:57.873Z,98.73
2022-12-08T03:56:34.995Z,98.74
2022-12-08T03:59:04.477Z,98.62
2022-12-08T04:01:33.002Z,98.68
2022-12-08T04:04:00.995Z,98.91
2022-12-08T04:06:29.104Z,98.71
2022-12-08T04:08:57.030Z,98.73
2022-12-08T04:11:25.022Z,98.73
2022-12-08T04:13:52.985Z,98.68
2022-12-08T04:16:24.078Z,98.61
2022-12-08T04:18:52.601Z,98.58
2022-12-08T04:21:20.683Z,98.57
2022-12-08T04:23:49.248Z,98.53
2022-12-08T04:26:17.824Z,98.46
2022-12-08T04:28:45.875Z,98.46
2022-12-08T04:31:14.043Z,98.65
2022-12-08T04:33:42.089Z,98.73
2022-12-08T04:36:10.168Z,98.73
2022-12-08T04:38:38.218Z,98.72
2022-12-08T04:41:06.609Z,98.83
2022-12-08T04:43:35.732Z,98.80
2022-12-08T04:46:08.295Z,98.85
2022-12-08T04:48:40.746Z,98.74
2022-12-08T04:51:17.123Z,98.82
2022-12-08T04:53:46.960Z,99.14
2022-12-08T04:56:16.904Z,99.47
2022-12-08T04:58:45.961Z,99.93
2022-12-08T05:01:14.602Z,99.94
2022-12-08T05:03:42.643Z,99.93
2022-12-08T05:06:13.677Z,99.74
2022-12-08T05:08:43.112Z,99.63
2022-12-08T05:11:13.265Z,99.67
2022-12-08T05:13:41.496Z,99.64
2022-12-08T05:16:12.583Z,99.64
2022-12-08T05:18:42.096Z,99.59
2022-12-08T05:21:10.908Z,99.55
2022-12-08T05:23:39.093Z,99.44
2022-12-08T05:26:07.173Z,99.66
2022-12-08T05:28:43.511Z,99.46
2022-12-08T05:31:12.587Z,99.51
2022-12-08T05:33:40.822Z,99.71
2022-12-08T05:36:10.290Z,99.92
2022-12-08T05:38:38.691Z,100.00
2022-12-08T05:41:19.560Z,100.00
2022-12-08T05:43:48.924Z,100.00
2022-12-08T05:46:17.818Z,100.00
2022-12-08T05:48:45.863Z,100.00
2022-12-08T05:51:23.090Z,100.00
2022-12-08T05:53:52.614Z,100.00
2022-12-08T05:56:21.014Z,100.00
2022-12-08T05:58:49.590Z,100.00
2022-12-08T06:01:26.339Z,100.00
2022-12-08T06:03:55.286Z,100.00
2022-12-08T06:06:23.281Z,100.00
2022-12-08T06:08:51.351Z,100.00
2022-12-08T06:11:21.718Z,100.00
2022-12-08T06:13:50.564Z,100.00
2022-12-08T06:16:19.701Z,100.00
2022-12-08T06:18:47.756Z,100.00
2022-12-08T06:21:16.576Z,100.00
2022-12-08T06:23:44.679Z,100.00
2022-12-08T06:26:14.756Z,100.00
2022-12-08T06:28:43.623Z,100.00
2022-12-08T06:31:19.113Z,100.00
2022-12-08T06:33:47.471Z,100.00
2022-12-08T06:36:17.861Z,100.00
2022-12-08T06:38:46.071Z,100.00
2022-12-08T06:41:14.101Z,100.00
2022-12-08T06:43:43.715Z,100.00
2022-12-08T06:46:15.592Z,100.00
2022-12-08T06:48:43.882Z,100.00
2022-12-08T06:51:15.790Z,99.51
2022-12-08T06:53:46.608Z,98.73
2022-12-08T06:56:15.963Z,98.26
2022-12-08T06:58:49.016Z,98.06
2022-12-08T07:01:20.521Z,97.86
2022-12-08T07:03:48.681Z,97.86
2022-12-08T07:06:21.654Z,98.13
2022-12-08T07:08:50.261Z,98.44
2022-12-08T07:11:22.041Z,98.84
2022-12-08T07:13:51.060Z,98.73
2022-12-08T07:16:19.214Z,98.43
2022-12-08T07:18:47.244Z,98.27
2022-12-08T07:21:16.481Z,98.35
2022-12-08T07:23:54.261Z,98.52
2022-12-08T07:26:25.626Z,98.73
2022-12-08T07:28:53.702Z,98.91
2022-12-08T07:31:24.537Z,98.69
2022-12-08T07:33:52.994Z,98.77
2022-12-08T07:36:21.600Z,98.96
2022-12-08T07:38:50.293Z,99.07
2022-12-08T07:41:23.336Z,99.19
2022-12-08T07:43:53.882Z,99.47
2022-12-08T07:46:23.999Z,99.49
2022-12-08T07:48:55.441Z,99.59
2022-12-08T07:51:25.049Z,99.53
2022-12-08T07:53:54.863Z,99.82
2022-12-08T07:56:24.283Z,99.68
2022-12-08T07:58:52.201Z,99.63
2022-12-08T08:01:20.148Z,99.71
2022-12-08T08:03:48.386Z,99.56
2022-12-08T08:06:16.825Z,99.54
2022-12-08T08:08:45.124Z,99.52
2022-12-08T08:11:20.919Z,99.47
2022-12-08T08:13:50.419Z,99.67
2022-12-08T08:16:19.644Z,99.83
2022-12-08T08:18:51.618Z,99.80
2022-12-08T08:24:09.147Z,99.06
2022-12-08T08:26:37.718Z,99.00
2022-12-08T08:29:05.793Z,98.68
2022-12-08T08:31:33.766Z,98.27
2022-12-08T08:34:06.509Z,98.10
2022-12-08T08:36:34.812Z,98.22
2022-12-08T08:39:03.992Z,98.34
2022-12-08T08:41:31.853Z,98.54
2022-12-08T08:43:59.788Z,98.11
2022-12-08T08:46:27.888Z,97.91
2022-12-08T08:48:56.379Z,97.94
2022-12-08T08:51:24.447Z,97.90
2022-12-08T08:53:52.352Z,98.29
2022-12-08T08:56:20.407Z,97.82
2022-12-08T08:58:49.771Z,96.57
2022-12-08T09:01:21.731Z,95.72
2022-12-08T09:03:50.121Z,95.88
2022-12-08T09:06:18.519Z,95.78
2022-12-08T09:08:48.237Z,95.72
2022-12-08T09:11:18.667Z,94.69
2022-12-08T09:13:51.659Z,94.74
2022-12-08T09:16:20.120Z,94.55
2022-12-08T09:18:49.697Z,93.80
2022-12-08T09:21:22.723Z,93.18
2022-12-08T09:23:56.210Z,91.84
2022-12-08T09:26:28.057Z,89.95
2022-12-08T09:28:57.415Z,89.51
2022-12-08T09:31:25.769Z,89.78
2022-12-08T09:33:53.864Z,90.35
2022-12-08T09:36:22.052Z,90.36
2022-12-08T09:38:53.792Z,90.81
2022-12-08T09:41:48.369Z,91.12
2022-12-08T09:44:48.337Z,91.30
2022-12-08T09:47:30.634Z,91.60
2022-12-08T09:50:08.670Z,91.94
2022-12-08T09:52:47.300Z,92.29
2022-12-08T09:55:22.561Z,92.73
2022-12-08T09:58:00.344Z,92.95
2022-12-08T10:00:28.240Z,93.12
2022-12-08T10:02:57.616Z,93.32
2022-12-08T10:05:28.392Z,93.89
2022-12-08T10:08:17.990Z,94.00
2022-12-08T10:11:04.677Z,94.41
2022-12-08T10:13:42.539Z,94.66
2022-12-08T10:16:29.703Z,94.84
2022-12-08T10:19:11.350Z,94.90
2022-12-08T10:21:40.634Z,95.04
2022-12-08T10:24:22.651Z,95.00
2022-12-08T10:26:50.602Z,95.07
2022-12-08T10:29:19.061Z,94.76
2022-12-08T10:31:47.059Z,94.79
2022-12-08T10:34:19.684Z,94.76
2022-12-08T10:36:51.030Z,95.07
2022-12-08T10:39:40.723Z,95.76
2022-12-08T10:42:14.501Z,95.92
2022-12-08T10:45:00.779Z,95.63
2022-12-08T10:47:30.362Z,95.41
2022-12-08T10:50:15.679Z,95.49
2022-12-08T10:52:43.681Z,95.87
2022-12-08T10:55:21.206Z,96.15
2022-12-08T10:57:49.244Z,96.21
2022-12-08T11:00:24.222Z,96.26
2022-12-08T11:03:04.774Z,96.34
2022-12-08T11:05:36.763Z,96.29
2022-12-08T11:08:05.922Z,96.08
2022-12-08T11:10:37.742Z,96.10
2022-12-08T11:13:13.455Z,96.01
2022-12-08T11:15:41.596Z,96.16
2022-12-08T11:18:28.152Z,96.18
2022-12-08T11:20:59.547Z,96.19
2022-12-08T11:23:29.112Z,96.48
2022-12-08T11:26:06.718Z,96.86
2022-12-08T11:28:35.035Z,97.09
2022-12-08T11:31:15.033Z,97.02
2022-12-08T11:33:44.746Z,97.13
2022-12-08T11:36:15.695Z,97.11
2022-12-08T11:38:49.068Z,97.28
2022-12-08T11:41:20.002Z,97.32
2022-12-08T11:44:06.926Z,97.31
2022-12-08T11:46:50.966Z,96.77
2022-12-08T11:49:20.792Z,96.82
2022-12-08T11:52:00.254Z,97.48
2022-12-08T11:54:40.210Z,97.84
2022-12-08T11:57:16.779Z,98.07
2022-12-08T11:59:46.398Z,98.28
2022-12-08T12:02:21.761Z,98.26
2022-12-08T12:05:05.272Z,98.47
2022-12-08T12:07:45.425Z,98.65
2022-12-08T12:10:22.547Z,98.91
2022-12-08T12:13:28.351Z,98.94
2022-12-08T12:16:11.440Z,98.90
2022-12-08T12:18:57.457Z,98.69
2022-12-08T12:21:40.463Z,98.50
2022-12-08T12:24:25.153Z,98.48
2022-12-08T12:27:00.935Z,98.35
2022-12-08T12:29:33.823Z,98.25
2022-12-08T12:32:07.051Z,98.40
2022-12-08T12:34:44.171Z,98.41
2022-12-08T12:37:18.686Z,98.62
2022-12-08T12:39:56.021Z,98.61
2022-12-08T12:42:38.487Z,98.72
2022-12-08T12:45:30.130Z,98.88
2022-12-08T12:47:58.947Z,98.81
2022-12-08T12:50:44.692Z,98.54
2022-12-08T12:53:15.709Z,98.62
2022-12-08T12:55:46.509Z,98.64
2022-12-08T12:58:30.067Z,98.73
2022-12-08T13:01:13.264Z,98.82
2022-12-08T13:03:48.751Z,98.99
2022-12-08T13:06:32.569Z,99.08
2022-12-08T13:09:00.795Z,99.05
2022-12-08T13:11:28.731Z,99.21
2022-12-08T13:14:04.142Z,99.30
2022-12-08T13:16:35.405Z,99.43
2022-12-08T13:19:06.020Z,99.74
2022-12-08T13:21:38.154Z,99.87
2022-12-08T13:24:20.023Z,99.90
2022-12-08T13:26:50.682Z,99.98
2022-12-08T13:29:22.564Z,99.98
2022-12-08T13:31:55.556Z,100.00
2022-12-08T13:34:41.998Z,100.00
2022-12-08T13:37:15.725Z,99.99
2022-12-08T13:39:51.233Z,99.91
2022-12-08T13:42:31.204Z,99.86
2022-12-08T13:45:36.250Z,99.98
2022-12-08T13:48:35.259Z,100.00
2022-12-08T13:57:24.572Z,100.00
2022-12-08T13:59:52.519Z,100.00
2022-12-08T14:02:40.780Z,100.00
2022-12-08T14:05:19.539Z,100.00
2022-12-08T14:07:54.041Z,100.00
2022-12-08T14:10:28.364Z,100.00
2022-12-08T14:13:02.715Z,100.00
2022-12-08T14:15:38.369Z,100.00
2022-12-08T14:18:25.555Z,100.00
2022-12-08T14:21:20.793Z,100.00
2022-12-08T14:23:48.959Z,100.00
2022-12-08T14:26:18.012Z,100.00
2022-12-08T14:28:45.949Z,100.00
2022-12-08T14:31:14.838Z,100.00
2022-12-08T14:33:43.175Z,100.00
2022-12-08T14:36:15.894Z,100.00
2022-12-08T14:38:45.362Z,100.00
2022-12-08T14:41:13.308Z,100.00
2022-12-08T14:43:43.143Z,100.00
2022-12-08T14:46:23.032Z,100.00
2022-12-08T14:48:51.159Z,100.00
2022-12-08T14:51:19.009Z,99.97
2022-12-08T14:53:59.946Z,99.89
2022-12-08T14:57:00.807Z,99.72
2022-12-08T14:59:31.206Z,99.37
2022-12-08T15:02:16.233Z,99.59
2022-12-08T15:04:47.936Z,99.70
2022-12-08T15:07:21.725Z,99.45
2022-12-08T15:10:08.915Z,99.31
2022-12-08T15:12:37.203Z,99.21
2022-12-08T15:15:08.607Z,99.11
2022-12-08T15:17:51.784Z,98.88
2022-12-08T15:20:34.608Z,98.37
2022-12-08T15:23:04.895Z,98.08
2022-12-08T15:25:32.992Z,98.04
2022-12-08T15:28:03.162Z,98.15
2022-12-08T15:30:31.305Z,98.19
2022-12-08T15:32:59.169Z,98.19
2022-12-08T15:35:28.144Z,97.99
2022-12-08T15:37:55.987Z,97.99
2022-12-08T15:40:26.032Z,98.00
2022-12-08T15:42:54.051Z,97.92
2022-12-08T15:45:28.780Z,97.84
2022-12-08T15:47:59.051Z,98.01
2022-12-08T15:50:27.415Z,97.96
2022-12-08T15:52:55.324Z,97.94
2022-12-08T15:55:23.379Z,97.81
2022-12-08T16:00:52.364Z,97.54
2022-12-08T16:04:13.775Z,97.54
2022-12-08T16:07:04.831Z,97.53
2022-12-08T16:09:16.291Z,97.59
2022-12-08T16:12:08.557Z,97.75
2022-12-08T16:17:27.469Z,97.81
2022-12-08T16:19:55.586Z,97.72
2022-12-08T16:22:54.158Z,97.68
2022-12-08T16:25:20.666Z,97.62
2022-12-08T16:28:36.945Z,97.74
2022-12-08T16:30:39.974Z,97.69
2022-12-08T16:33:07.951Z,97.55
2022-12-08T16:35:36.052Z,97.66
2022-12-08T16:38:04.998Z,97.85
2022-12-08T16:40:33.406Z,98.13
2022-12-08T16:43:01.598Z,98.28
2022-12-08T16:45:30.575Z,98.25
2022-12-08T16:48:00.998Z,98.37
2022-12-08T16:50:32.633Z,98.68
2022-12-08T16:53:06.918Z,98.70
2022-12-08T16:55:35.626Z,98.55
2022-12-08T16:58:03.918Z,98.59
2022-12-08T17:00:37.165Z,98.84
2022-12-08T17:03:08.230Z,98.83
2022-12-08T17:05:36.535Z,98.76
2022-12-08T17:08:04.692Z,98.65
2022-12-08T17:10:34.681Z,98.61
2022-12-08T17:13:02.777Z,98.34
2022-12-08T17:15:30.981Z,98.54
2022-12-08T17:17:58.984Z,98.31
2022-12-08T17:20:29.007Z,98.10
2022-12-08T17:22:58.424Z,98.18
2022-12-08T17:25:27.102Z,98.11
2022-12-08T17:27:56.445Z,98.14
2022-12-08T17:30:24.435Z,97.50
2022-12-08T17:32:52.970Z,97.20
2022-12-08T17:35:22.448Z,97.51
2022-12-08T17:37:50.383Z,97.78
2022-12-08T17:40:18.428Z,97.95
2022-12-08T17:42:46.474Z,97.99
2022-12-08T17:45:14.350Z,98.19
2022-12-08T17:47:44.056Z,98.04
2022-12-08T17:50:12.084Z,98.00
2022-12-08T17:52:39.969Z,97.80
2022-12-08T17:55:08.224Z,97.75
2022-12-08T17:57:36.205Z,97.70
2022-12-08T18:00:05.668Z,97.60
2022-12-08T18:02:40.013Z,97.70
2022-12-08T18:05:08.328Z,97.54
2022-12-08T18:07:36.330Z,97.50
2022-12-08T18:10:04.879Z,97.21
2022-12-08T18:12:33.170Z,97.31
2022-12-08T18:15:01.280Z,97.40
2022-12-08T18:17:29.251Z,97.41
2022-12-08T18:19:57.246Z,97.36
2022-12-08T18:22:26.723Z,97.50
2022-12-08T18:24:54.657Z,97.57
2022-12-08T18:27:23.217Z,97.74
2022-12-08T18:29:51.128Z,97.88
2022-12-08T18:32:22.783Z,97.94
2022-12-08T18:34:51.012Z,97.86
2022-12-08T18:37:19.201Z,98.04
2022-12-08T18:39:48.070Z,98.16
2022-12-08T18:42:24.978Z,98.28
2022-12-08T18:45:01.819Z,98.78
2022-12-08T18:47:32.407Z,98.95
2022-12-08T18:50:00.292Z,99.24
2022-12-08T18:52:32.193Z,99.52
2022-12-08T18:55:08.409Z,99.29
2022-12-08T18:57:42.433Z,99.22
2022-12-08T19:00:14.499Z,99.18
2022-12-08T19:02:42.801Z,99.54
2022-12-08T19:05:13.385Z,99.67
2022-12-08T19:07:42.760Z,99.90
2022-12-08T19:10:11.773Z,99.98
2022-12-08T19:12:39.914Z,100.00
2022-12-08T19:15:08.556Z,100.00
2022-12-08T19:17:36.778Z,100.00
2022-12-08T19:20:06.955Z,100.00
2022-12-08T19:22:35.168Z,100.00
2022-12-08T19:25:04.394Z,100.00
2022-12-08T19:27:34.201Z,100.00
2022-12-08T19:30:02.308Z,100.00
2022-12-08T19:32:31.085Z,100.00
2022-12-08T19:34:59.007Z,100.00
2022-12-08T19:37:27.095Z,100.00
2022-12-08T19:40:13.850Z,100.00
2022-12-08T19:43:00.411Z,100.00
2022-12-08T19:45:28.434Z,100.00
2022-12-08T19:47:56.413Z,100.00
2022-12-08T19:50:36.307Z,100.00
2022-12-08T19:53:10.825Z,100.00
2022-12-08T19:55:39.897Z,100.00
2022-12-08T19:58:08.262Z,100.00
2022-12-08T20:00:38.621Z,100.00
2022-12-08T20:03:07.397Z,100.00
2022-12-08T20:05:36.845Z,100.00
2022-12-08T20:08:05.164Z,100.00
2022-12-08T20:10:37.754Z,100.00
2022-12-08T20:13:25.123Z,100.00
2022-12-08T20:15:53.989Z,100.00
2022-12-08T20:18:22.089Z,100.00
2022-12-08T20:20:50.180Z,100.00
2022-12-08T20:23:18.247Z,100.00
2022-12-08T20:25:47.597Z,100.00
2022-12-08T20:28:15.739Z,100.00
2022-12-08T20:30:46.882Z,100.00
2022-12-08T20:33:18.354Z,100.00
2022-12-08T20:35:46.975Z,100.00
2022-12-08T20:38:14.925Z,100.00
2022-12-08T20:40:44.562Z,100.00
2022-12-08T20:43:12.985Z,100.00
2022-12-08T20:45:41.092Z,100.00
2022-12-08T20:48:09.070Z,100.00
2022-12-08T20:50:37.328Z,100.00
2022-12-08T20:53:06.327Z,100.00
2022-12-08T20:55:35.724Z,100.00
2022-12-08T20:58:03.831Z,100.00
2022-12-08T21:00:31.956Z,100.00
2022-12-08T21:03:01.096Z,100.00
2022-12-08T21:05:29.556Z,100.00
2022-12-08T21:07:57.798Z,100.00
2022-12-08T21:10:55.505Z,100.00
2022-12-08T21:13:23.868Z,100.00
2022-12-08T21:15:52.140Z,100.00
2022-12-08T21:22:41.665Z,100.00
2022-12-08T21:25:23.490Z,100.00
2022-12-08T21:32:25.766Z,100.00
2022-12-08T21:35:01.947Z,100.00
2022-12-08T22:01:03.185Z,100.00
2022-12-08T22:08:35.480Z,100.00
2022-12-08T22:12:02.514Z,100.00
2022-12-08T22:24:34.382Z,100.00
2022-12-08T22:41:28.468Z,100.00
2022-12-08T23:26:44.825Z,100.00
2022-12-08T23:29:12.908Z,100.00
2022-12-08T23:31:40.964Z,100.00
2022-12-08T23:34:09.742Z,100.00
2022-12-08T23:36:38.081Z,100.00
2022-12-08T23:39:06.524Z,100.00
2022-12-08T23:41:34.677Z,100.00
2022-12-08T23:44:02.939Z,100.00
2022-12-08T23:46:32.329Z,100.00
2022-12-08T23:49:00.528Z,100.00
2022-12-08T23:51:28.719Z,100.00
2022-12-08T23:53:57.116Z,100.00
2022-12-08T23:56:29.983Z,100.00
2022-12-08T23:59:01.144Z,100.00
